Time;durP1;ratioP1;P1;durP2;ratioP2;P2;SDS_P1;SDS_P2;PMS_P1;PMS_P2;Temp;Humidity;BMP_temperature;BMP_pressure;BME280_temperature;BME280_humidity;BME280_pressure;Samples;Min_cycle;Max_cycle;Signal;HPM_P1;HPM_P2
2022/07/08 00:01:03;;;;;;;;;;;;;;;;;;5112694;28;19915;-78
2022/07/08 00:03:28;;;;;;;;;;;;;;;;;;5112793;28;19923;-78
2022/07/08 00:05:54;;;;;;;;;;;;;;;;;;5113527;28;19923;-78
2022/07/08 00:08:19;;;;;;;;;;;;;;;;;;5114018;28;19959;-78
2022/07/08 00:10:44;;;;;;;;;;;;;;;;;;5113181;28;19912;-78
2022/07/08 00:13:10;;;;;;;;;;;;;;;;;;5099574;28;20290;-78
2022/07/08 00:15:35;;;;;;;;;;;;;;;;;;5116675;28;19919;-78
2022/07/08 00:18:00;;;;;;;;;;;;;;;;;;5099721;28;19916;-78
2022/07/08 00:20:25;;;;;;;;;;;;;;;;;;5118250;28;19943;-78
2022/07/08 00:22:51;;;;;;;;;;;;;;;;;;5117693;28;19916;-78
2022/07/08 00:25:16;;;;;;;;;;;;;;;;;;5117925;28;19922;-78
2022/07/08 00:27:41;;;;;;;;;;;;;;;;;;5117623;28;20285;-78
2022/07/08 00:30:08;;;;;;;;;;;;;;;;;;5117353;28;20342;-78
2022/07/08 00:32:34;;;;;;;;;;;;;;;;;;5117576;28;19923;-78
2022/07/08 00:35:00;;;;;;;;;;;;;;;;;;5116267;28;19920;-78
2022/07/08 00:37:25;;;;;;;;;;;;;;;;;;5117504;28;20442;-78
2022/07/08 00:39:51;;;;;;;;;;;;;;;;;;5116151;28;19916;-78
2022/07/08 00:42:16;;;;;;;;;;;;;;;;;;5117620;28;19920;-78
2022/07/08 00:44:41;;;;;;;;;;;;;;;;;;5099443;28;19918;-78
2022/07/08 00:47:07;;;;;;;;;;;;;;;;;;5117557;28;20258;-78
2022/07/08 00:49:32;;;;;;;;;;;;;;;;;;5116975;28;19928;-78
2022/07/08 00:51:58;;;;;;;;;;;;;;;;;;5117187;28;19926;-78
2022/07/08 00:54:24;;;;;;;;;;;;;;;;;;5116220;28;20489;-79
2022/07/08 00:56:49;;;;;;;;;;;;;;;;;;5116209;28;19996;-78
2022/07/08 00:59:14;;;;;;;;;;;;;;;;;;5115833;28;20362;-78
2022/07/08 01:01:39;;;;;;;;;;;;;;;;;;5117153;28;19969;-79
2022/07/08 01:04:05;;;;;;;;;;;;;;;;;;5117627;28;19916;-78
2022/07/08 01:06:31;;;;;;;;;;;;;;;;;;5115754;28;19911;-79
2022/07/08 01:08:57;;;;;;;;;;;;;;;;;;5115577;28;20006;-78
2022/07/08 01:14:25;;;;;;;;;;;;;;;;;;5107794;28;19974;-78
2022/07/08 01:16:50;;;;;;;;;;;;;;;;;;5116974;28;20389;-78
2022/07/08 01:19:15;;;;;;;;;;;;;;;;;;5115580;28;20274;-78
2022/07/08 01:21:40;;;;;;;;;;;;;;;;;;5114992;28;19926;-78
2022/07/08 01:24:06;;;;;;;;;;;;;;;;;;5116718;28;19923;-78
2022/07/08 01:26:31;;;;;;;;;;;;;;;;;;5115997;28;19916;-78
2022/07/08 01:28:56;;;;;;;;;;;;;;;;;;5116851;28;19937;-78
2022/07/08 01:31:22;;;;;;;;;;;;;;;;;;5098242;28;20289;-78
2022/07/08 01:33:47;;;;;;;;;;;;;;;;;;5098110;28;19951;-78
2022/07/08 01:36:12;;;;;;;;;;;;;;;;;;5115079;28;20007;-78
2022/07/08 01:38:37;;;;;;;;;;;;;;;;;;5115117;28;20299;-78
2022/07/08 01:41:03;;;;;;;;;;;;;;;;;;5115460;28;19918;-78
2022/07/08 01:43:28;;;;;;;;;;;;;;;;;;5115117;28;20293;-78
2022/07/08 01:45:53;;;;;;;;;;;;;;;;;;5116192;28;19922;-78
2022/07/08 01:48:19;;;;;;;;;;;;;;;;;;5098030;28;19915;-78
2022/07/08 01:50:44;;;;;;;;;;;;;;;;;;5115937;28;20414;-78
2022/07/08 01:53:11;;;;;;;;;;;;;;;;;;5097928;28;19912;-78
2022/07/08 01:55:37;;;;;;;;;;;;;;;;;;5116002;28;19916;-78
2022/07/08 01:58:02;;;;;;;;;;;;;;;;;;5114762;28;19926;-79
2022/07/08 02:00:27;;;;;;;;;;;;;;;;;;5114793;28;19915;-79
2022/07/08 02:02:52;;;;;;;;;;;;;;;;;;5116311;28;20411;-78
2022/07/08 02:05:18;;;;;;;;;;;;;;;;;;5115893;28;19912;-79
2022/07/08 02:07:43;;;;;;;;;;;;;;;;;;5097432;28;19996;-78
2022/07/08 02:10:08;;;;;;;;;;;;;;;;;;5116024;28;20392;-78
2022/07/08 02:12:34;;;;;;;;;;;;;;;;;;5114833;28;19912;-78
2022/07/08 02:15:03;;;;;;;;;;;;;;;;;;5115515;28;20373;-78
2022/07/08 02:17:29;;;;;;;;;;;;;;;;;;5098154;28;19916;-78
2022/07/08 02:19:55;;;;;;;;;;;;;;;;;;5114624;28;20354;-78
2022/07/08 02:22:20;;;;;;;;;;;;;;;;;;5114799;28;19957;-78
2022/07/08 02:24:47;;;;;;;;;;;;;;;;;;5114538;28;19954;-78
2022/07/08 02:27:12;;;;;;;;;;;;;;;;;;5115907;28;19915;-78
2022/07/08 02:29:37;;;;;;;;;;;;;;;;;;5097087;28;20019;-78
2022/07/08 02:32:03;;;;;;;;;;;;;;;;;;5115802;28;19939;-78
2022/07/08 02:34:28;;;;;;;;;;;;;;;;;;5114646;28;19920;-78
2022/07/08 02:36:54;;;;;;;;;;;;;;;;;;5115349;28;20358;-78
2022/07/08 02:39:19;;;;;;;;;;;;;;;;;;5113886;28;19919;-78
2022/07/08 02:41:44;;;;;;;;;;;;;;;;;;5096763;28;19955;-79
2022/07/08 02:44:10;;;;;;;;;;;;;;;;;;5113988;28;19911;-78
2022/07/08 02:46:35;;;;;;;;;;;;;;;;;;5115411;28;20350;-78
2022/07/08 02:49:01;;;;;;;;;;;;;;;;;;5096267;28;19920;-79
2022/07/08 02:51:26;;;;;;;;;;;;;;;;;;5113856;28;20010;-78
2022/07/08 02:53:51;;;;;;;;;;;;;;;;;;5114151;28;19918;-78
2022/07/08 02:56:16;;;;;;;;;;;;;;;;;;5113874;28;19918;-78
2022/07/08 02:58:42;;;;;;;;;;;;;;;;;;5115026;28;20006;-78
2022/07/08 03:01:07;;;;;;;;;;;;;;;;;;5114091;28;20258;-78
2022/07/08 03:03:32;;;;;;;;;;;;;;;;;;5113552;28;19968;-78
2022/07/08 03:05:58;;;;;;;;;;;;;;;;;;5113824;28;19959;-78
2022/07/08 03:08:23;;;;;;;;;;;;;;;;;;5114581;28;20014;-78
2022/07/08 03:10:49;;;;;;;;;;;;;;;;;;5114468;28;19923;-79
2022/07/08 03:13:14;;;;;;;;;;;;;;;;;;5096263;28;19923;-79
2022/07/08 03:15:39;;;;;;;;;;;;;;;;;;5113632;28;19912;-78
2022/07/08 03:18:05;;;;;;;;;;;;;;;;;;5114643;28;19981;-78
2022/07/08 03:20:30;;;;;;;;;;;;;;;;;;5114836;28;19948;-79
2022/07/08 03:22:55;;;;;;;;;;;;;;;;;;5114341;28;19916;-78
2022/07/08 03:25:21;;;;;;;;;;;;;;;;;;5114282;28;19915;-78
2022/07/08 03:27:48;;;;;;;;;;;;;;;;;;5115080;28;19916;-78
2022/07/08 03:30:13;;;;;;;;;;;;;;;;;;5114077;28;19970;-78
2022/07/08 03:32:39;;;;;;;;;;;;;;;;;;5113288;28;19967;-78
2022/07/08 03:35:04;;;;;;;;;;;;;;;;;;5112832;28;19969;-78
2022/07/08 03:37:29;;;;;;;;;;;;;;;;;;5114153;28;19916;-78
2022/07/08 03:39:54;;;;;;;;;;;;;;;;;;5114499;28;20030;-79
2022/07/08 03:42:20;;;;;;;;;;;;;;;;;;5114398;28;19916;-79
2022/07/08 03:44:45;;;;;;;;;;;;;;;;;;5095842;28;20384;-79
2022/07/08 03:47:11;;;;;;;;;;;;;;;;;;5112798;28;19919;-78
2022/07/08 03:49:36;;;;;;;;;;;;;;;;;;5113972;28;19931;-78
2022/07/08 03:52:01;;;;;;;;;;;;;;;;;;5113287;28;19912;-78
2022/07/08 03:54:27;;;;;;;;;;;;;;;;;;5113329;28;20423;-78
2022/07/08 03:56:52;;;;;;;;;;;;;;;;;;5113058;28;19965;-78
2022/07/08 03:59:18;;;;;;;;;;;;;;;;;;5095978;28;19959;-78
2022/07/08 04:01:43;;;;;;;;;;;;;;;;;;5112668;28;19916;-78
2022/07/08 04:04:08;;;;;;;;;;;;;;;;;;5112655;28;19920;-78
2022/07/08 04:06:34;;;;;;;;;;;;;;;;;;5114262;28;19916;-78
2022/07/08 04:08:59;;;;;;;;;;;;;;;;;;5114200;28;19947;-78
2022/07/08 04:11:24;;;;;;;;;;;;;;;;;;5112607;28;19989;-79
2022/07/08 04:13:49;;;;;;;;;;;;;;;;;;5113945;28;20022;-79
2022/07/08 04:16:15;;;;;;;;;;;;;;;;;;5114270;28;19939;-79
2022/07/08 04:18:40;;;;;;;;;;;;;;;;;;5095451;28;19916;-81
2022/07/08 04:21:06;;;;;;;;;;;;;;;;;;5095893;28;19919;-82
2022/07/08 04:23:31;;;;;;;;;;;;;;;;;;5112586;28;20020;-81
2022/07/08 04:25:56;;;;;;;;;;;;;;;;;;5112730;28;19927;-82
2022/07/08 04:28:22;;;;;;;;;;;;;;;;;;5114378;28;20029;-82
2022/07/08 04:30:47;;;;;;;;;;;;;;;;;;5113627;28;19919;-82
2022/07/08 04:33:12;;;;;;;;;;;;;;;;;;5111921;28;20370;-79
2022/07/08 04:35:37;;;;;;;;;;;;;;;;;;5113923;28;19923;-79
2022/07/08 04:38:03;;;;;;;;;;;;;;;;;;5113689;28;19948;-81
2022/07/08 04:40:28;;;;;;;;;;;;;;;;;;5095444;28;20359;-81
2022/07/08 04:42:54;;;;;;;;;;;;;;;;;;5112169;28;20368;-78
2022/07/08 04:45:19;;;;;;;;;;;;;;;;;;5113657;28;19916;-80
2022/07/08 04:47:46;;;;;;;;;;;;;;;;;;5111991;28;19922;-81
2022/07/08 04:50:11;;;;;;;;;;;;;;;;;;5111703;28;19924;-81
2022/07/08 04:52:36;;;;;;;;;;;;;;;;;;5095058;28;20263;-80
2022/07/08 04:55:02;;;;;;;;;;;;;;;;;;5112856;28;19923;-85
2022/07/08 04:57:32;;;;;;;;;;;;;;;;;;5114217;28;19916;-84
2022/07/08 04:59:57;;;;;;;;;;;;;;;;;;5118133;28;19939;-80
2022/07/08 05:02:23;;;;;;;;;;;;;;;;;;5117607;28;19934;-80
2022/07/08 05:04:48;;;;;;;;;;;;;;;;;;5115805;28;20075;-79
2022/07/08 05:07:14;;;;;;;;;;;;;;;;;;5117827;28;20341;-79
2022/07/08 05:09:39;;;;;;;;;;;;;;;;;;5119832;28;20015;-78
2022/07/08 05:12:05;;;;;;;;;;;;;;;;;;5116273;28;19912;-83
2022/07/08 05:14:30;;;;;;;;;;;;;;;;;;5099054;28;19954;-81
2022/07/08 05:16:55;;;;;;;;;;;;;;;;;;5118500;28;19916;-81
2022/07/08 05:19:20;;;;;;;;;;;;;;;;;;5116676;28;19923;-77
2022/07/08 05:21:46;;;;;;;;;;;;;;;;;;5116252;28;20006;-78
2022/07/08 05:24:11;;;;;;;;;;;;;;;;;;5117856;28;19950;-77
2022/07/08 05:26:36;;;;;;;;;;;;;;;;;;5117953;28;19915;-77
2022/07/08 05:29:01;;;;;;;;;;;;;;;;;;5116985;28;19916;-77
2022/07/08 05:31:27;;;;;;;;;;;;;;;;;;5117607;28;19938;-77
2022/07/08 05:33:52;;;;;;;;;;;;;;;;;;5116511;28;19912;-77
2022/07/08 05:36:17;;;;;;;;;;;;;;;;;;5117238;28;19915;-77
2022/07/08 05:38:42;;;;;;;;;;;;;;;;;;5118004;28;19961;-77
2022/07/08 05:41:08;;;;;;;;;;;;;;;;;;5118523;28;19965;-77
2022/07/08 05:43:33;;;;;;;;;;;;;;;;;;5118087;28;20018;-77
2022/07/08 05:45:58;;;;;;;;;;;;;;;;;;5117632;28;19919;-77
2022/07/08 05:48:24;;;;;;;;;;;;;;;;;;5115431;28;20002;-77
2022/07/08 05:50:49;;;;;;;;;;;;;;;;;;5110227;28;19963;-74
2022/07/08 05:53:16;;;;;;;;;;;;;;;;;;5119264;27;20289;-77
2022/07/08 05:55:42;;;;;;;;;;;;;;;;;;5115566;28;19920;-77
2022/07/08 05:58:07;;;;;;;;;;;;;;;;;;5117050;28;19938;-77
2022/07/08 06:00:33;;;;;;;;;;;;;;;;;;5115207;28;19911;-77
2022/07/08 06:02:58;;;;;;;;;;;;;;;;;;5115901;28;20370;-77
2022/07/08 06:05:23;;;;;;;;;;;;;;;;;;5116655;28;20284;-77
2022/07/08 06:07:48;;;;;;;;;;;;;;;;;;5116252;28;20004;-77
2022/07/08 06:10:14;;;;;;;;;;;;;;;;;;5116078;28;19920;-78
2022/07/08 06:12:39;;;;;;;;;;;;;;;;;;5114968;28;20381;-77
2022/07/08 06:15:05;;;;;;;;;;;;;;;;;;5115882;28;19982;-77
2022/07/08 06:17:30;;;;;;;;;;;;;;;;;;5116373;28;19941;-77
2022/07/08 06:19:55;;;;;;;;;;;;;;;;;;5116478;28;19968;-77
2022/07/08 06:22:21;;;;;;;;;;;;;;;;;;5114808;28;19981;-77
2022/07/08 06:24:46;;;;;;;;;;;;;;;;;;5115869;28;20357;-77
2022/07/08 06:27:12;;;;;;;;;;;;;;;;;;5114729;28;19924;-78
2022/07/08 06:29:37;;;;;;;;;;;;;;;;;;5115835;28;19928;-77
2022/07/08 06:32:04;;;;;;;;;;;;;;;;;;5115354;28;20331;-77
2022/07/08 06:34:29;;;;;;;;;;;;;;;;;;5115382;28;19938;-78
2022/07/08 06:36:54;;;;;;;;;;;;;;;;;;5113830;28;19912;-77
2022/07/08 06:39:23;;;;;;;;;;;;;;;;;;5114108;28;19923;-78
2022/07/08 06:41:48;;;;;;;;;;;;;;;;;;5113913;28;19938;-77
2022/07/08 06:44:13;;;;;;;;;;;;;;;;;;5098156;28;19998;-77
2022/07/08 06:46:39;;;;;;;;;;;;;;;;;;5116533;28;20208;-76
2022/07/08 06:49:04;;;;;;;;;;;;;;;;;;5098323;28;19965;-77
2022/07/08 06:51:29;;;;;;;;;;;;;;;;;;5116162;28;20378;-77
2022/07/08 06:56:39;;;;;;;;;;;;;;;;;;5116431;28;20418;-77
2022/07/08 06:59:06;;;;;;;;;;;;;;;;;;5115479;28;19916;-77
2022/07/08 07:01:31;;;;;;;;;;;;;;;;;;5114636;28;20068;-77
2022/07/08 07:03:56;;;;;;;;;;;;;;;;;;5115056;28;19977;-77
2022/07/08 07:06:22;;;;;;;;;;;;;;;;;;5115054;28;19915;-77
2022/07/08 07:08:47;;;;;;;;;;;;;;;;;;5115156;28;19937;-77
2022/07/08 07:11:13;;;;;;;;;;;;;;;;;;5114387;28;19919;-78
2022/07/08 07:13:38;;;;;;;;;;;;;;;;;;5114200;28;19956;-77
2022/07/08 07:16:04;;;;;;;;;;;;;;;;;;5114262;28;19966;-77
2022/07/08 07:18:29;;;;;;;;;;;;;;;;;;5115002;28;19920;-78
2022/07/08 07:20:54;;;;;;;;;;;;;;;;;;5113560;28;20353;-77
2022/07/08 07:23:20;;;;;;;;;;;;;;;;;;5116423;28;19915;-77
2022/07/08 07:25:45;;;;;;;;;;;;;;;;;;5114647;28;19916;-77
2022/07/08 07:28:10;;;;;;;;;;;;;;;;;;5114094;28;20393;-77
2022/07/08 07:30:35;;;;;;;;;;;;;;;;;;5115470;28;20019;-76
2022/07/08 07:33:01;;;;;;;;;;;;;;;;;;5115986;28;19916;-77
2022/07/08 07:35:26;;;;;;;;;;;;;;;;;;5115257;28;20426;-76
2022/07/08 07:37:51;;;;;;;;;;;;;;;;;;5115047;28;19965;-76
2022/07/08 07:40:16;;;;;;;;;;;;;;;;;;5113886;28;20324;-76
2022/07/08 07:42:42;;;;;;;;;;;;;;;;;;5114998;28;19919;-76
2022/07/08 07:45:07;;;;;;;;;;;;;;;;;;5114566;28;19963;-76
2022/07/08 07:47:32;;;;;;;;;;;;;;;;;;5115531;28;19923;-76
2022/07/08 07:49:58;;;;;;;;;;;;;;;;;;5114103;28;19923;-76
2022/07/08 07:52:23;;;;;;;;;;;;;;;;;;5114108;28;19946;-75
2022/07/08 07:54:48;;;;;;;;;;;;;;;;;;5114455;28;19920;-76
2022/07/08 07:57:14;;;;;;;;;;;;;;;;;;5115164;28;19951;-76
2022/07/08 07:59:40;;;;;;;;;;;;;;;;;;5116085;28;20010;-76
2022/07/08 08:02:05;;;;;;;;;;;;;;;;;;5114510;28;19966;-76
2022/07/08 08:04:31;;;;;;;;;;;;;;;;;;5112181;28;19955;-75
2022/07/08 08:06:56;;;;;;;;;;;;;;;;;;5112081;28;19954;-75
2022/07/08 08:09:21;;;;;;;;;;;;;;;;;;5113811;28;20014;-74
2022/07/08 08:11:46;;;;;;;;;;;;;;;;;;5112234;28;20354;-75
2022/07/08 08:14:12;;;;;;;;;;;;;;;;;;5113225;28;19922;-75
2022/07/08 08:16:37;;;;;;;;;;;;;;;;;;5113625;28;19961;-76
2022/07/08 08:19:02;;;;;;;;;;;;;;;;;;5096449;28;19956;-75
2022/07/08 08:21:29;;;;;;;;;;;;;;;;;;5112064;28;19911;-76
2022/07/08 08:23:55;;;;;;;;;;;;;;;;;;5112287;28;19912;-75
2022/07/08 08:26:21;;;;;;;;;;;;;;;;;;5111963;28;19974;-75
2022/07/08 08:28:46;;;;;;;;;;;;;;;;;;5113514;28;19963;-76
2022/07/08 08:31:12;;;;;;;;;;;;;;;;;;5113398;28;20377;-75
2022/07/08 08:33:38;;;;;;;;;;;;;;;;;;5117382;28;19957;-76
2022/07/08 08:36:03;;;;;;;;;;;;;;;;;;5117359;28;19916;-76
2022/07/08 08:38:28;;;;;;;;;;;;;;;;;;5115951;28;19919;-76
2022/07/08 08:40:56;;;;;;;;;;;;;;;;;;5117136;28;20014;-76
2022/07/08 08:43:21;;;;;;;;;;;;;;;;;;5098716;28;19961;-76
2022/07/08 08:45:47;;;;;;;;;;;;;;;;;;5117103;28;19977;-76
2022/07/08 08:48:12;;;;;;;;;;;;;;;;;;5117041;28;20425;-76
2022/07/08 08:50:53;;;;;;;;;;;;;;;;;;5098507;28;19923;-76
2022/07/08 08:53:26;;;;;;;;;;;;;;;;;;5115511;28;19927;-76
2022/07/08 08:55:52;;;;;;;;;;;;;;;;;;5116942;28;19912;-76
2022/07/08 08:58:17;;;;;;;;;;;;;;;;;;5117138;28;19964;-76
2022/07/08 09:00:43;;;;;;;;;;;;;;;;;;5115499;28;20011;-76
2022/07/08 09:03:08;;;;;;;;;;;;;;;;;;5115397;28;20339;-76
2022/07/08 09:05:33;;;;;;;;;;;;;;;;;;5115701;28;19912;-76
2022/07/08 09:07:58;;;;;;;;;;;;;;;;;;5116596;28;19919;-76
2022/07/08 09:10:24;;;;;;;;;;;;;;;;;;5115252;28;20262;-76
2022/07/08 09:13:10;;;;;;;;;;;;;;;;;;5115403;28;20330;-76
2022/07/08 09:15:36;;;;;;;;;;;;;;;;;;5116566;28;19912;-76
2022/07/08 09:18:03;;;;;;;;;;;;;;;;;;5115479;28;20014;-76
2022/07/08 09:20:38;;;;;;;;;;;;;;;;;;5115522;28;19970;-76
2022/07/08 09:23:04;;;;;;;;;;;;;;;;;;5116462;28;20370;-76
2022/07/08 09:25:30;;;;;;;;;;;;;;;;;;5114830;28;19969;-76
2022/07/08 09:27:58;;;;;;;;;;;;;;;;;;5115217;28;19911;-77
2022/07/08 09:30:26;;;;;;;;;;;;;;;;;;5116609;28;20002;-76
2022/07/08 09:32:58;;;;;;;;;;;;;;;;;;5115192;28;19950;-76
2022/07/08 09:35:36;;;;;;;;;;;;;;;;;;5115435;28;19955;-76
2022/07/08 09:38:05;;;;;;;;;;;;;;;;;;5115683;28;20353;-76
2022/07/08 09:40:31;;;;;;;;;;;;;;;;;;5098333;28;19912;-76
2022/07/08 09:42:56;;;;;;;;;;;;;;;;;;5114642;28;19941;-75
2022/07/08 09:45:31;;;;;;;;;;;;;;;;;;5116804;28;20339;-76
2022/07/08 09:48:06;;;;;;;;;;;;;;;;;;5116378;28;19912;-77
2022/07/08 09:50:41;;;;;;;;;;;;;;;;;;5115895;28;20413;-77
2022/07/08 09:53:10;;;;;;;;;;;;;;;;;;5114541;28;20300;-77
2022/07/08 09:55:37;;;;;;;;;;;;;;;;;;5114591;28;20002;-77
2022/07/08 09:58:03;;;;;;;;;;;;;;;;;;5097436;28;19912;-77
2022/07/08 10:00:28;;;;;;;;;;;;;;;;;;5114640;28;20280;-78
2022/07/08 10:02:54;;;;;;;;;;;;;;;;;;5115240;28;19938;-77
2022/07/08 10:05:19;;;;;;;;;;;;;;;;;;5116199;28;20014;-78
2022/07/08 10:07:44;;;;;;;;;;;;;;;;;;5097578;28;20014;-77
2022/07/08 10:10:09;;;;;;;;;;;;;;;;;;5113874;28;20377;-77
2022/07/08 10:12:35;;;;;;;;;;;;;;;;;;5114941;28;19915;-77
2022/07/08 10:15:00;;;;;;;;;;;;;;;;;;5115669;28;20388;-77
2022/07/08 10:17:25;;;;;;;;;;;;;;;;;;5114556;28;19996;-79
2022/07/08 10:19:50;;;;;;;;;;;;;;;;;;5114653;28;20369;-79
2022/07/08 10:22:16;;;;;;;;;;;;;;;;;;5114012;28;20073;-78
2022/07/08 10:24:41;;;;;;;;;;;;;;;;;;5098181;28;20294;-78
2022/07/08 10:27:08;;;;;;;;;;;;;;;;;;5114720;28;19912;-78
2022/07/08 10:29:33;;;;;;;;;;;;;;;;;;5114113;28;19916;-79
2022/07/08 10:31:59;;;;;;;;;;;;;;;;;;5115386;28;20333;-78
2022/07/08 10:34:29;;;;;;;;;;;;;;;;;;5114295;28;19912;-78
2022/07/08 10:36:54;;;;;;;;;;;;;;;;;;5113645;28;19935;-78
2022/07/08 10:39:26;;;;;;;;;;;;;;;;;;5113656;28;20323;-78
2022/07/08 10:41:58;;;;;;;;;;;;;;;;;;5114172;28;19986;-78
2022/07/08 10:44:42;;;;;;;;;;;;;;;;;;5113879;28;19911;-78
2022/07/08 10:47:11;;;;;;;;;;;;;;;;;;5114805;28;20411;-78
2022/07/08 10:49:40;;;;;;;;;;;;;;;;;;5113187;28;19920;-78
2022/07/08 10:52:05;;;;;;;;;;;;;;;;;;5113324;28;20330;-77
2022/07/08 10:54:36;;;;;;;;;;;;;;;;;;5095532;28;19976;-80
2022/07/08 10:57:02;;;;;;;;;;;;;;;;;;5115502;28;20308;-80
2022/07/08 10:59:28;;;;;;;;;;;;;;;;;;5113601;28;20015;-78
2022/07/08 11:01:59;;;;;;;;;;;;;;;;;;5114606;28;20015;-78
2022/07/08 11:04:28;;;;;;;;;;;;;;;;;;5115173;28;19918;-78
2022/07/08 11:06:55;;;;;;;;;;;;;;;;;;5114665;28;20384;-78
2022/07/08 11:09:22;;;;;;;;;;;;;;;;;;5113273;28;20301;-77
2022/07/08 11:11:48;;;;;;;;;;;;;;;;;;5113377;28;19912;-78
2022/07/08 11:14:13;;;;;;;;;;;;;;;;;;5113110;28;20441;-79
2022/07/08 11:16:39;;;;;;;;;;;;;;;;;;5114404;28;19976;-81
2022/07/08 11:19:05;;;;;;;;;;;;;;;;;;5114224;28;19955;-80
2022/07/08 11:21:30;;;;;;;;;;;;;;;;;;5114440;28;20006;-81
2022/07/08 11:23:56;;;;;;;;;;;;;;;;;;5095880;28;19932;-79
2022/07/08 11:26:22;;;;;;;;;;;;;;;;;;5113988;28;20037;-80
2022/07/08 11:28:47;;;;;;;;;;;;;;;;;;5112855;28;20377;-80
2022/07/08 11:31:19;;;;;;;;;;;;;;;;;;5114264;28;19967;-79
2022/07/08 11:33:45;;;;;;;;;;;;;;;;;;5114385;28;19923;-79
2022/07/08 11:36:14;;;;;;;;;;;;;;;;;;5113022;28;19995;-79
2022/07/08 11:38:39;;;;;;;;;;;;;;;;;;5112638;28;20354;-79
2022/07/08 11:41:05;;;;;;;;;;;;;;;;;;5113289;28;19976;-79
2022/07/08 11:43:30;;;;;;;;;;;;;;;;;;5111883;28;19919;-80
2022/07/08 11:45:55;;;;;;;;;;;;;;;;;;5113253;28;19983;-79
2022/07/08 11:48:20;;;;;;;;;;;;;;;;;;5113160;28;19922;-79
2022/07/08 11:50:50;;;;;;;;;;;;;;;;;;5113415;28;20229;-78
2022/07/08 11:53:22;;;;;;;;;;;;;;;;;;5112016;28;19942;-80
2022/07/08 11:55:47;;;;;;;;;;;;;;;;;;5095124;28;19923;-79
2022/07/08 11:58:20;;;;;;;;;;;;;;;;;;5113021;28;19916;-79
2022/07/08 12:00:46;;;;;;;;;;;;;;;;;;5111664;28;19995;-79
2022/07/08 12:03:11;;;;;;;;;;;;;;;;;;5111754;28;19996;-79
2022/07/08 12:05:36;;;;;;;;;;;;;;;;;;5113360;28;20365;-79
2022/07/08 12:08:08;;;;;;;;;;;;;;;;;;5116158;28;20324;-78
2022/07/08 12:10:34;;;;;;;;;;;;;;;;;;5117101;28;19915;-79
2022/07/08 12:12:59;;;;;;;;;;;;;;;;;;5117369;28;20022;-79
2022/07/08 12:15:32;;;;;;;;;;;;;;;;;;5118700;28;19926;-79
2022/07/08 12:17:57;;;;;;;;;;;;;;;;;;5115850;28;19976;-79
2022/07/08 12:20:32;;;;;;;;;;;;;;;;;;5117261;28;19932;-79
2022/07/08 12:22:58;;;;;;;;;;;;;;;;;;5116968;28;19922;-78
2022/07/08 12:25:23;;;;;;;;;;;;;;;;;;5115480;28;20267;-79
2022/07/08 12:27:58;;;;;;;;;;;;;;;;;;5116684;28;19965;-78
2022/07/08 12:30:24;;;;;;;;;;;;;;;;;;5116099;28;20288;-77
2022/07/08 12:32:50;;;;;;;;;;;;;;;;;;5116056;28;20002;-79
2022/07/08 12:35:15;;;;;;;;;;;;;;;;;;5117441;28;19915;-79
2022/07/08 12:37:41;;;;;;;;;;;;;;;;;;5117749;28;20010;-81
2022/07/08 12:40:13;;;;;;;;;;;;;;;;;;5118839;28;19985;-81
2022/07/08 12:42:38;;;;;;;;;;;;;;;;;;5099040;28;19951;-84
2022/07/08 12:45:12;;;;;;;;;;;;;;;;;;5116554;28;19958;-84
2022/07/08 12:47:37;;;;;;;;;;;;;;;;;;5098580;28;20353;-81
2022/07/08 12:50:06;;;;;;;;;;;;;;;;;;5115312;28;19924;-81
2022/07/08 12:52:31;;;;;;;;;;;;;;;;;;5114901;28;20031;-82
2022/07/08 12:54:56;;;;;;;;;;;;;;;;;;5116350;28;20048;-82
2022/07/08 12:57:21;;;;;;;;;;;;;;;;;;5115377;28;20367;-80
2022/07/08 12:59:47;;;;;;;;;;;;;;;;;;5116516;28;19995;-83
2022/07/08 13:02:12;;;;;;;;;;;;;;;;;;5117431;28;19916;-81
2022/07/08 13:04:37;;;;;;;;;;;;;;;;;;5115876;28;19950;-83
2022/07/08 13:07:03;;;;;;;;;;;;;;;;;;5115378;28;19923;-81
2022/07/08 13:09:28;;;;;;;;;;;;;;;;;;5098872;28;20439;-82
2022/07/08 13:11:54;;;;;;;;;;;;;;;;;;5099467;28;19984;-82
2022/07/08 13:14:19;;;;;;;;;;;;;;;;;;5117938;28;19923;-82
2022/07/08 13:16:44;;;;;;;;;;;;;;;;;;5098446;28;20327;-80
2022/07/08 13:19:10;;;;;;;;;;;;;;;;;;5117158;28;19919;-79
2022/07/08 13:21:35;;;;;;;;;;;;;;;;;;5118321;28;19916;-80
2022/07/08 13:24:04;;;;;;;;;;;;;;;;;;5116692;28;20282;-80
2022/07/08 13:26:29;;;;;;;;;;;;;;;;;;5116402;28;19918;-80
2022/07/08 13:28:54;;;;;;;;;;;;;;;;;;5098675;28;20285;-80
2022/07/08 13:31:23;;;;;;;;;;;;;;;;;;5116504;28;19946;-80
2022/07/08 13:33:48;;;;;;;;;;;;;;;;;;5117885;28;19912;-79
2022/07/08 13:36:17;;;;;;;;;;;;;;;;;;5114654;28;19923;-80
2022/07/08 13:38:42;;;;;;;;;;;;;;;;;;5114385;28;19934;-80
2022/07/08 13:41:08;;;;;;;;;;;;;;;;;;5098780;28;20347;-80
2022/07/08 13:43:33;;;;;;;;;;;;;;;;;;5117591;28;19916;-80
2022/07/08 13:45:58;;;;;;;;;;;;;;;;;;5099141;28;20361;-80
2022/07/08 13:48:23;;;;;;;;;;;;;;;;;;5116957;28;19938;-80
2022/07/08 13:50:49;;;;;;;;;;;;;;;;;;5116292;28;19928;-80
2022/07/08 13:53:14;;;;;;;;;;;;;;;;;;5114335;28;19923;-81
2022/07/08 13:55:39;;;;;;;;;;;;;;;;;;5115856;28;19920;-80
2022/07/08 13:58:04;;;;;;;;;;;;;;;;;;5117198;28;20296;-82
2022/07/08 14:00:30;;;;;;;;;;;;;;;;;;5113457;28;19923;-81
2022/07/08 14:02:56;;;;;;;;;;;;;;;;;;5096716;28;19958;-81
2022/07/08 14:05:21;;;;;;;;;;;;;;;;;;5115693;28;19958;-81
2022/07/08 14:07:46;;;;;;;;;;;;;;;;;;5098487;28;20230;-81
2022/07/08 14:10:12;;;;;;;;;;;;;;;;;;5098094;28;19920;-82
2022/07/08 14:12:37;;;;;;;;;;;;;;;;;;5115822;28;19916;-83
2022/07/08 14:15:03;;;;;;;;;;;;;;;;;;5116496;28;20254;-82
2022/07/08 14:17:28;;;;;;;;;;;;;;;;;;5118052;28;20243;-82
2022/07/08 14:19:53;;;;;;;;;;;;;;;;;;5117305;28;20265;-81
2022/07/08 14:22:19;;;;;;;;;;;;;;;;;;5117383;28;19926;-81
2022/07/08 14:24:44;;;;;;;;;;;;;;;;;;5098997;28;20282;-81
2022/07/08 14:27:09;;;;;;;;;;;;;;;;;;5117414;28;19919;-81
2022/07/08 14:29:35;;;;;;;;;;;;;;;;;;5114149;28;20348;-81
2022/07/08 14:32:00;;;;;;;;;;;;;;;;;;5117915;28;20006;-81
2022/07/08 14:34:25;;;;;;;;;;;;;;;;;;5116795;28;20296;-82
2022/07/08 14:36:51;;;;;;;;;;;;;;;;;;5115116;28;19912;-81
2022/07/08 14:39:16;;;;;;;;;;;;;;;;;;5117063;28;20003;-82
2022/07/08 14:41:41;;;;;;;;;;;;;;;;;;5117312;28;20325;-80
2022/07/08 14:44:09;;;;;;;;;;;;;;;;;;5115553;28;19918;-81
2022/07/08 14:46:34;;;;;;;;;;;;;;;;;;5114699;28;19922;-81
2022/07/08 14:48:59;;;;;;;;;;;;;;;;;;5116601;28;20308;-82
2022/07/08 14:51:25;;;;;;;;;;;;;;;;;;5117559;28;19939;-82
2022/07/08 14:53:50;;;;;;;;;;;;;;;;;;5115680;28;19998;-82
2022/07/08 14:56:18;;;;;;;;;;;;;;;;;;5117344;28;19951;-82
2022/07/08 14:58:44;;;;;;;;;;;;;;;;;;5116861;28;20334;-82
2022/07/08 15:01:09;;;;;;;;;;;;;;;;;;5116771;28;19948;-82
2022/07/08 15:03:34;;;;;;;;;;;;;;;;;;5116924;28;19915;-80
2022/07/08 15:06:01;;;;;;;;;;;;;;;;;;5115454;28;19946;-82
2022/07/08 15:08:28;;;;;;;;;;;;;;;;;;5115644;28;19916;-80
2022/07/08 15:10:53;;;;;;;;;;;;;;;;;;5113950;28;19915;-82
2022/07/08 15:13:19;;;;;;;;;;;;;;;;;;5113886;28;19930;-81
2022/07/08 15:15:44;;;;;;;;;;;;;;;;;;5115780;28;19981;-81
2022/07/08 15:18:10;;;;;;;;;;;;;;;;;;5113376;28;19920;-81
2022/07/08 15:20:35;;;;;;;;;;;;;;;;;;5115148;28;20324;-82
2022/07/08 15:23:00;;;;;;;;;;;;;;;;;;5116228;28;19916;-82
2022/07/08 15:25:25;;;;;;;;;;;;;;;;;;5127652;28;19937;-82
2022/07/08 15:27:51;;;;;;;;;;;;;;;;;;5133419;28;19916;-82
2022/07/08 15:30:16;;;;;;;;;;;;;;;;;;5133654;28;19904;-81
2022/07/08 15:32:42;;;;;;;;;;;;;;;;;;5122369;28;19916;-83
2022/07/08 15:35:07;;;;;;;;;;;;;;;;;;5133037;28;19942;-82
2022/07/08 15:37:33;;;;;;;;;;;;;;;;;;5116664;28;19958;-81
2022/07/08 15:40:00;;;;;;;;;;;;;;;;;;5124812;28;20014;-81
2022/07/08 15:42:25;;;;;;;;;;;;;;;;;;5118052;28;19938;-78
2022/07/08 15:44:50;;;;;;;;;;;;;;;;;;5119555;28;19911;-79
2022/07/08 15:47:16;;;;;;;;;;;;;;;;;;5120752;28;19915;-80
2022/07/08 15:49:41;;;;;;;;;;;;;;;;;;5122020;28;19922;-80
2022/07/08 15:52:08;;;;;;;;;;;;;;;;;;5121257;28;21449;-80
2022/07/08 15:54:33;;;;;;;;;;;;;;;;;;5123097;28;19920;-79
2022/07/08 15:56:59;;;;;;;;;;;;;;;;;;5121558;28;19916;-79
2022/07/08 15:59:24;;;;;;;;;;;;;;;;;;5123667;28;20274;-80
2022/07/08 16:01:50;;;;;;;;;;;;;;;;;;5125612;28;20040;-79
2022/07/08 16:04:15;;;;;;;;;;;;;;;;;;5123842;28;19915;-82
2022/07/08 16:06:41;;;;;;;;;;;;;;;;;;5123291;28;19915;-81
2022/07/08 16:09:06;;;;;;;;;;;;;;;;;;5126843;28;19958;-80
2022/07/08 16:11:31;;;;;;;;;;;;;;;;;;5122427;28;19962;-80
2022/07/08 16:13:57;;;;;;;;;;;;;;;;;;5117715;28;20095;-80
2022/07/08 16:16:22;;;;;;;;;;;;;;;;;;5099014;28;19916;-82
2022/07/08 16:18:47;;;;;;;;;;;;;;;;;;5116354;28;19919;-81
2022/07/08 16:21:13;;;;;;;;;;;;;;;;;;5115932;28;19924;-81
2022/07/08 16:23:38;;;;;;;;;;;;;;;;;;5098145;28;19912;-81
2022/07/08 16:26:04;;;;;;;;;;;;;;;;;;5113524;28;20003;-79
2022/07/08 16:28:29;;;;;;;;;;;;;;;;;;5114018;28;19920;-81
2022/07/08 16:30:54;;;;;;;;;;;;;;;;;;5113300;28;20374;-80
2022/07/08 16:33:19;;;;;;;;;;;;;;;;;;5113541;28;19959;-81
2022/07/08 16:35:45;;;;;;;;;;;;;;;;;;5114174;28;20358;-81
2022/07/08 16:38:10;;;;;;;;;;;;;;;;;;5117742;28;19911;-82
2022/07/08 16:40:35;;;;;;;;;;;;;;;;;;5116861;28;19968;-81
2022/07/08 16:43:00;;;;;;;;;;;;;;;;;;5116467;28;19916;-81